sensor_id;sensor_type;location;lat;lon;timestamp;temperature;humidity
81488;DHT22;70897;52.464;13.428;2023-07-28T00:01:50;16.40;99.90
81488;DHT22;70897;52.464;13.428;2023-07-28T00:04:36;16.40;99.90
81488;DHT22;70897;52.464;13.428;2023-07-28T00:07:21;16.40;99.90
81488;DHT22;70897;52.464;13.428;2023-07-28T00:10:06;16.40;99.90
81488;DHT22;70897;52.464;13.428;2023-07-28T00:12:51;16.40;99.90
81488;DHT22;70897;52.464;13.428;2023-07-28T00:15:36;16.40;99.90
81488;DHT22;70897;52.464;13.428;2023-07-28T00:18:21;16.40;99.90
81488;DHT22;70897;52.464;13.428;2023-07-28T00:21:06;16.40;99.90
81488;DHT22;70897;52.464;13.428;2023-07-28T00:23:51;16.40;99.90
81488;DHT22;70897;52.464;13.428;2023-07-28T00:26:36;16.40;99.90
81488;DHT22;70897;52.464;13.428;2023-07-28T00:29:21;16.40;99.90
81488;DHT22;70897;52.464;13.428;2023-07-28T00:32:06;16.50;99.90
81488;DHT22;70897;52.464;13.428;2023-07-28T00:34:52;16.50;99.90
81488;DHT22;70897;52.464;13.428;2023-07-28T00:37:37;16.50;99.90
81488;DHT22;70897;52.464;13.428;2023-07-28T00:40:22;16.50;99.90
81488;DHT22;70897;52.464;13.428;2023-07-28T00:43:08;16.50;99.90
81488;DHT22;70897;52.464;13.428;2023-07-28T00:45:53;16.60;99.90
81488;DHT22;70897;52.464;13.428;2023-07-28T00:48:39;16.50;99.90
81488;DHT22;70897;52.464;13.428;2023-07-28T00:51:24;16.60;99.90
81488;DHT22;70897;52.464;13.428;2023-07-28T00:54:09;16.60;99.90
81488;DHT22;70897;52.464;13.428;2023-07-28T00:56:55;16.60;99.90
81488;DHT22;70897;52.464;13.428;2023-07-28T00:59:40;16.60;99.90
81488;DHT22;70897;52.464;13.428;2023-07-28T01:02:25;16.60;99.90
81488;DHT22;70897;52.464;13.428;2023-07-28T01:05:10;16.70;99.90
81488;DHT22;70897;52.464;13.428;2023-07-28T01:08:10;16.70;99.90
81488;DHT22;70897;52.464;13.428;2023-07-28T01:10:56;16.80;99.90
81488;DHT22;70897;52.464;13.428;2023-07-28T01:13:41;16.70;99.90
81488;DHT22;70897;52.464;13.428;2023-07-28T01:16:26;16.80;99.90
81488;DHT22;70897;52.464;13.428;2023-07-28T01:19:12;16.80;99.90
81488;DHT22;70897;52.464;13.428;2023-07-28T01:26:07;16.90;99.90
81488;DHT22;70897;52.464;13.428;2023-07-28T01:28:53;16.90;99.90
81488;DHT22;70897;52.464;13.428;2023-07-28T01:31:39;16.90;99.90
81488;DHT22;70897;52.464;13.428;2023-07-28T01:34:24;16.90;99.90
81488;DHT22;70897;52.464;13.428;2023-07-28T01:37:09;16.90;99.90
81488;DHT22;70897;52.464;13.428;2023-07-28T01:39:54;16.90;99.90
81488;DHT22;70897;52.464;13.428;2023-07-28T01:42:39;16.90;99.90
81488;DHT22;70897;52.464;13.428;2023-07-28T01:45:24;16.90;99.90
81488;DHT22;70897;52.464;13.428;2023-07-28T01:48:09;16.90;99.90
81488;DHT22;70897;52.464;13.428;2023-07-28T01:50:54;16.90;99.90
81488;DHT22;70897;52.464;13.428;2023-07-28T01:53:39;16.90;99.90
81488;DHT22;70897;52.464;13.428;2023-07-28T01:56:24;16.90;99.90
81488;DHT22;70897;52.464;13.428;2023-07-28T01:59:09;16.90;99.90
81488;DHT22;70897;52.464;13.428;2023-07-28T02:01:54;17.00;99.90
81488;DHT22;70897;52.464;13.428;2023-07-28T02:04:39;17.00;99.90
81488;DHT22;70897;52.464;13.428;2023-07-28T02:07:24;17.00;99.90
81488;DHT22;70897;52.464;13.428;2023-07-28T02:10:10;16.90;99.90
81488;DHT22;70897;52.464;13.428;2023-07-28T02:12:55;17.00;99.90
81488;DHT22;70897;52.464;13.428;2023-07-28T02:15:40;17.00;99.90
81488;DHT22;70897;52.464;13.428;2023-07-28T02:18:25;17.00;99.90
81488;DHT22;70897;52.464;13.428;2023-07-28T02:21:10;17.00;99.90
81488;DHT22;70897;52.464;13.428;2023-07-28T02:23:55;17.00;99.90
81488;DHT22;70897;52.464;13.428;2023-07-28T02:26:40;17.00;99.90
81488;DHT22;70897;52.464;13.428;2023-07-28T02:29:25;17.00;99.90
81488;DHT22;70897;52.464;13.428;2023-07-28T02:32:10;17.00;99.90
81488;DHT22;70897;52.464;13.428;2023-07-28T02:34:55;17.00;99.90
81488;DHT22;70897;52.464;13.428;2023-07-28T02:37:40;17.00;99.90
81488;DHT22;70897;52.464;13.428;2023-07-28T02:40:25;17.10;99.90
81488;DHT22;70897;52.464;13.428;2023-07-28T02:43:12;17.00;99.90
81488;DHT22;70897;52.464;13.428;2023-07-28T02:45:57;17.00;99.90
81488;DHT22;70897;52.464;13.428;2023-07-28T02:48:42;17.00;99.90
81488;DHT22;70897;52.464;13.428;2023-07-28T02:51:27;17.00;99.90
81488;DHT22;70897;52.464;13.428;2023-07-28T02:54:12;17.00;99.90
81488;DHT22;70897;52.464;13.428;2023-07-28T02:56:57;17.00;99.90
81488;DHT22;70897;52.464;13.428;2023-07-28T02:59:42;17.10;99.90
81488;DHT22;70897;52.464;13.428;2023-07-28T03:02:27;17.00;99.90
81488;DHT22;70897;52.464;13.428;2023-07-28T03:05:15;17.00;99.90
81488;DHT22;70897;52.464;13.428;2023-07-28T03:08:23;17.00;99.90
81488;DHT22;70897;52.464;13.428;2023-07-28T03:11:08;17.00;99.90
81488;DHT22;70897;52.464;13.428;2023-07-28T03:13:53;17.10;99.90
81488;DHT22;70897;52.464;13.428;2023-07-28T03:16:39;17.00;99.90
81488;DHT22;70897;52.464;13.428;2023-07-28T03:19:24;17.10;99.90
81488;DHT22;70897;52.464;13.428;2023-07-28T03:22:10;17.10;99.90
81488;DHT22;70897;52.464;13.428;2023-07-28T03:24:55;17.10;99.90
81488;DHT22;70897;52.464;13.428;2023-07-28T03:27:40;17.10;99.90
81488;DHT22;70897;52.464;13.428;2023-07-28T03:30:24;17.10;99.90
81488;DHT22;70897;52.464;13.428;2023-07-28T03:33:09;17.10;99.90
81488;DHT22;70897;52.464;13.428;2023-07-28T03:35:54;17.10;99.90
81488;DHT22;70897;52.464;13.428;2023-07-28T03:38:41;17.10;99.90
81488;DHT22;70897;52.464;13.428;2023-07-28T03:41:26;17.10;99.90
81488;DHT22;70897;52.464;13.428;2023-07-28T03:44:11;17.10;99.90
81488;DHT22;70897;52.464;13.428;2023-07-28T03:46:56;17.10;99.90
81488;DHT22;70897;52.464;13.428;2023-07-28T03:49:41;17.10;99.90
81488;DHT22;70897;52.464;13.428;2023-07-28T03:52:26;17.20;99.90
81488;DHT22;70897;52.464;13.428;2023-07-28T03:55:11;17.20;99.90
81488;DHT22;70897;52.464;13.428;2023-07-28T03:57:56;17.20;99.90
81488;DHT22;70897;52.464;13.428;2023-07-28T04:00:41;17.20;99.90
81488;DHT22;70897;52.464;13.428;2023-07-28T04:03:26;17.20;99.90
81488;DHT22;70897;52.464;13.428;2023-07-28T04:06:11;17.20;99.90
81488;DHT22;70897;52.464;13.428;2023-07-28T04:08:56;17.20;99.90
81488;DHT22;70897;52.464;13.428;2023-07-28T04:11:41;17.30;99.90
81488;DHT22;70897;52.464;13.428;2023-07-28T04:14:27;17.30;99.90
81488;DHT22;70897;52.464;13.428;2023-07-28T04:17:12;17.30;99.90
81488;DHT22;70897;52.464;13.428;2023-07-28T04:19:57;17.30;99.90
81488;DHT22;70897;52.464;13.428;2023-07-28T04:22:42;17.30;99.90
81488;DHT22;70897;52.464;13.428;2023-07-28T04:25:27;17.30;99.90
81488;DHT22;70897;52.464;13.428;2023-07-28T04:28:12;17.40;99.90
81488;DHT22;70897;52.464;13.428;2023-07-28T04:30:57;17.40;99.90
81488;DHT22;70897;52.464;13.428;2023-07-28T04:34:05;17.50;99.90
81488;DHT22;70897;52.464;13.428;2023-07-28T04:37:09;17.60;99.90
81488;DHT22;70897;52.464;13.428;2023-07-28T04:40:04;17.70;99.90
81488;DHT22;70897;52.464;13.428;2023-07-28T04:42:54;17.70;99.90
81488;DHT22;70897;52.464;13.428;2023-07-28T04:45:39;17.70;99.90
81488;DHT22;70897;52.464;13.428;2023-07-28T04:48:31;17.70;99.90
81488;DHT22;70897;52.464;13.428;2023-07-28T04:51:18;17.70;99.90
81488;DHT22;70897;52.464;13.428;2023-07-28T04:54:23;17.70;99.90
81488;DHT22;70897;52.464;13.428;2023-07-28T04:57:08;17.60;99.90
81488;DHT22;70897;52.464;13.428;2023-07-28T04:59:56;17.60;99.90
81488;DHT22;70897;52.464;13.428;2023-07-28T05:02:41;17.60;99.90
81488;DHT22;70897;52.464;13.428;2023-07-28T05:05:26;17.50;99.90
81488;DHT22;70897;52.464;13.428;2023-07-28T05:08:13;17.60;99.90
81488;DHT22;70897;52.464;13.428;2023-07-28T05:10:58;17.60;99.90
81488;DHT22;70897;52.464;13.428;2023-07-28T05:13:43;17.60;99.90
81488;DHT22;70897;52.464;13.428;2023-07-28T05:16:29;17.60;99.90
81488;DHT22;70897;52.464;13.428;2023-07-28T05:19:28;17.60;99.90
81488;DHT22;70897;52.464;13.428;2023-07-28T05:22:16;17.60;99.90
81488;DHT22;70897;52.464;13.428;2023-07-28T05:25:05;17.60;99.90
81488;DHT22;70897;52.464;13.428;2023-07-28T05:27:55;17.70;99.90
81488;DHT22;70897;52.464;13.428;2023-07-28T05:30:40;17.80;99.90
81488;DHT22;70897;52.464;13.428;2023-07-28T05:33:26;17.80;99.90
81488;DHT22;70897;52.464;13.428;2023-07-28T05:36:12;17.80;99.90
81488;DHT22;70897;52.464;13.428;2023-07-28T05:38:58;17.80;99.90
81488;DHT22;70897;52.464;13.428;2023-07-28T05:41:47;17.80;99.90
81488;DHT22;70897;52.464;13.428;2023-07-28T05:44:33;17.90;99.90
81488;DHT22;70897;52.464;13.428;2023-07-28T05:47:18;17.90;99.90
81488;DHT22;70897;52.464;13.428;2023-07-28T05:50:04;17.90;99.90
81488;DHT22;70897;52.464;13.428;2023-07-28T05:52:50;18.00;99.90
81488;DHT22;70897;52.464;13.428;2023-07-28T05:55:35;18.10;99.90
81488;DHT22;70897;52.464;13.428;2023-07-28T05:58:20;18.00;99.90
81488;DHT22;70897;52.464;13.428;2023-07-28T06:01:06;18.10;99.90
81488;DHT22;70897;52.464;13.428;2023-07-28T06:04:10;18.10;99.90
81488;DHT22;70897;52.464;13.428;2023-07-28T06:07:02;18.10;99.90
81488;DHT22;70897;52.464;13.428;2023-07-28T06:09:46;18.10;99.90
81488;DHT22;70897;52.464;13.428;2023-07-28T06:12:33;18.00;99.90
81488;DHT22;70897;52.464;13.428;2023-07-28T06:15:18;18.10;99.90
81488;DHT22;70897;52.464;13.428;2023-07-28T06:18:03;18.00;99.90
81488;DHT22;70897;52.464;13.428;2023-07-28T06:20:48;18.00;99.90
81488;DHT22;70897;52.464;13.428;2023-07-28T06:23:33;18.00;99.90
81488;DHT22;70897;52.464;13.428;2023-07-28T06:26:18;18.00;99.90
81488;DHT22;70897;52.464;13.428;2023-07-28T06:29:03;18.00;99.90
81488;DHT22;70897;52.464;13.428;2023-07-28T06:31:49;18.00;99.90
81488;DHT22;70897;52.464;13.428;2023-07-28T06:34:34;18.10;99.90
81488;DHT22;70897;52.464;13.428;2023-07-28T06:37:19;18.20;99.90
81488;DHT22;70897;52.464;13.428;2023-07-28T06:40:06;18.30;99.90
81488;DHT22;70897;52.464;13.428;2023-07-28T06:42:52;18.30;99.90
81488;DHT22;70897;52.464;13.428;2023-07-28T06:45:38;18.40;99.90
81488;DHT22;70897;52.464;13.428;2023-07-28T06:48:23;18.50;99.90
81488;DHT22;70897;52.464;13.428;2023-07-28T06:51:08;18.50;99.90
81488;DHT22;70897;52.464;13.428;2023-07-28T06:53:53;18.50;99.90
81488;DHT22;70897;52.464;13.428;2023-07-28T06:56:39;18.60;99.90
81488;DHT22;70897;52.464;13.428;2023-07-28T06:59:23;18.60;99.90
81488;DHT22;70897;52.464;13.428;2023-07-28T07:02:09;18.70;99.90
81488;DHT22;70897;52.464;13.428;2023-07-28T07:04:54;18.70;99.90
81488;DHT22;70897;52.464;13.428;2023-07-28T07:07:40;18.80;99.90
81488;DHT22;70897;52.464;13.428;2023-07-28T07:10:25;18.80;99.90
81488;DHT22;70897;52.464;13.428;2023-07-28T07:13:10;18.90;99.90
81488;DHT22;70897;52.464;13.428;2023-07-28T07:15:56;18.90;99.90
81488;DHT22;70897;52.464;13.428;2023-07-28T07:18:41;18.90;99.90
81488;DHT22;70897;52.464;13.428;2023-07-28T07:21:27;19.00;99.90
81488;DHT22;70897;52.464;13.428;2023-07-28T07:24:13;19.30;99.90
81488;DHT22;70897;52.464;13.428;2023-07-28T07:27:00;19.50;99.90
81488;DHT22;70897;52.464;13.428;2023-07-28T07:29:45;19.30;99.90
81488;DHT22;70897;52.464;13.428;2023-07-28T07:32:32;19.40;99.90
81488;DHT22;70897;52.464;13.428;2023-07-28T07:35:17;19.50;99.90
81488;DHT22;70897;52.464;13.428;2023-07-28T07:38:04;19.80;99.90
81488;DHT22;70897;52.464;13.428;2023-07-28T07:40:48;20.20;99.90
81488;DHT22;70897;52.464;13.428;2023-07-28T07:43:34;20.60;99.80
81488;DHT22;70897;52.464;13.428;2023-07-28T07:46:19;20.70;99.10
81488;DHT22;70897;52.464;13.428;2023-07-28T07:49:04;20.90;98.60
81488;DHT22;70897;52.464;13.428;2023-07-28T07:51:50;21.10;97.80
81488;DHT22;70897;52.464;13.428;2023-07-28T07:54:35;21.30;96.10
81488;DHT22;70897;52.464;13.428;2023-07-28T07:57:20;21.90;95.70
81488;DHT22;70897;52.464;13.428;2023-07-28T08:00:06;21.90;94.00
81488;DHT22;70897;52.464;13.428;2023-07-28T08:02:57;21.80;94.50
81488;DHT22;70897;52.464;13.428;2023-07-28T08:05:42;21.70;93.60
81488;DHT22;70897;52.464;13.428;2023-07-28T08:08:27;21.50;93.70
81488;DHT22;70897;52.464;13.428;2023-07-28T08:11:12;21.70;93.20
81488;DHT22;70897;52.464;13.428;2023-07-28T08:16:42;21.80;94.50
81488;DHT22;70897;52.464;13.428;2023-07-28T08:22:13;22.80;92.60
81488;DHT22;70897;52.464;13.428;2023-07-28T08:24:58;24.40;87.80
81488;DHT22;70897;52.464;13.428;2023-07-28T08:27:43;24.50;86.00
81488;DHT22;70897;52.464;13.428;2023-07-28T08:30:28;24.70;84.80
81488;DHT22;70897;52.464;13.428;2023-07-28T08:33:13;24.60;82.90
81488;DHT22;70897;52.464;13.428;2023-07-28T08:35:58;24.30;83.70
81488;DHT22;70897;52.464;13.428;2023-07-28T08:38:43;24.00;86.90
81488;DHT22;70897;52.464;13.428;2023-07-28T08:41:29;23.60;85.50
81488;DHT22;70897;52.464;13.428;2023-07-28T08:44:14;23.30;87.90
81488;DHT22;70897;52.464;13.428;2023-07-28T08:52:33;22.90;90.10
81488;DHT22;70897;52.464;13.428;2023-07-28T08:55:18;23.50;89.40
81488;DHT22;70897;52.464;13.428;2023-07-28T08:58:20;23.60;88.00
81488;DHT22;70897;52.464;13.428;2023-07-28T09:20:38;23.50;88.80
81488;DHT22;70897;52.464;13.428;2023-07-28T09:23:29;23.50;88.70
81488;DHT22;70897;52.464;13.428;2023-07-28T09:45:40;23.30;88.40
81488;DHT22;70897;52.464;13.428;2023-07-28T09:48:27;23.90;89.20
81488;DHT22;70897;52.464;13.428;2023-07-28T09:51:16;24.80;83.40
81488;DHT22;70897;52.464;13.428;2023-07-28T09:54:07;25.60;77.80
81488;DHT22;70897;52.464;13.428;2023-07-28T09:56:56;26.30;74.80
81488;DHT22;70897;52.464;13.428;2023-07-28T09:59:47;26.80;78.00
81488;DHT22;70897;52.464;13.428;2023-07-28T10:02:32;26.60;70.50
81488;DHT22;70897;52.464;13.428;2023-07-28T10:05:18;26.20;73.80
81488;DHT22;70897;52.464;13.428;2023-07-28T10:08:04;25.90;74.50
81488;DHT22;70897;52.464;13.428;2023-07-28T10:10:49;26.00;74.30
81488;DHT22;70897;52.464;13.428;2023-07-28T10:13:42;27.50;69.60
81488;DHT22;70897;52.464;13.428;2023-07-28T10:16:45;28.20;68.00
81488;DHT22;70897;52.464;13.428;2023-07-28T10:19:34;28.60;63.70
81488;DHT22;70897;52.464;13.428;2023-07-28T10:22:19;28.20;63.40
81488;DHT22;70897;52.464;13.428;2023-07-28T10:25:06;27.40;64.90
81488;DHT22;70897;52.464;13.428;2023-07-28T10:27:53;27.90;66.60
81488;DHT22;70897;52.464;13.428;2023-07-28T10:30:51;27.90;63.40
81488;DHT22;70897;52.464;13.428;2023-07-28T10:33:44;27.60;64.20
81488;DHT22;70897;52.464;13.428;2023-07-28T10:42:09;24.70;78.20
81488;DHT22;70897;52.464;13.428;2023-07-28T10:44:53;23.30;90.10
81488;DHT22;70897;52.464;13.428;2023-07-28T10:47:40;24.10;88.90
81488;DHT22;70897;52.464;13.428;2023-07-28T10:50:27;24.50;86.80
81488;DHT22;70897;52.464;13.428;2023-07-28T10:53:12;26.00;83.70
81488;DHT22;70897;52.464;13.428;2023-07-28T10:55:58;27.90;70.60
81488;DHT22;70897;52.464;13.428;2023-07-28T10:58:43;28.70;67.00
81488;DHT22;70897;52.464;13.428;2023-07-28T11:01:36;29.80;70.50
81488;DHT22;70897;52.464;13.428;2023-07-28T11:04:21;31.00;63.00
81488;DHT22;70897;52.464;13.428;2023-07-28T11:07:08;31.50;58.30
81488;DHT22;70897;52.464;13.428;2023-07-28T11:09:53;30.70;58.50
81488;DHT22;70897;52.464;13.428;2023-07-28T11:12:43;29.80;58.80
81488;DHT22;70897;52.464;13.428;2023-07-28T11:15:28;28.70;59.00
81488;DHT22;70897;52.464;13.428;2023-07-28T11:18:15;28.40;62.20
81488;DHT22;70897;52.464;13.428;2023-07-28T11:21:00;27.70;65.20
81488;DHT22;70897;52.464;13.428;2023-07-28T11:23:45;27.30;66.70
81488;DHT22;70897;52.464;13.428;2023-07-28T11:26:30;27.10;67.50
81488;DHT22;70897;52.464;13.428;2023-07-28T11:29:15;26.90;70.10
